Time;durP1;ratioP1;P1;durP2;ratioP2;P2;SDS_P1;SDS_P2;PMS_P1;PMS_P2;Temp;Humidity;BMP_temperature;BMP_pressure;BME280_temperature;BME280_humidity;BME280_pressure;Samples;Min_cycle;Max_cycle;Signal;HPM_P1;HPM_P2
2022/05/17 00:00:50;;;;;;;6.05;2.67;;;20.80;58.60;;;;;;4990694;28;92598;-60
2022/05/17 00:03:16;;;;;;;6.65;2.63;;;20.80;58.60;;;;;;4993162;28;91724;-60
2022/05/17 00:05:43;;;;;;;7.13;2.90;;;20.80;58.60;;;;;;4992066;28;93068;-60
2022/05/17 00:08:09;;;;;;;6.00;2.80;;;20.80;58.50;;;;;;4973719;28;94375;-60
2022/05/17 00:10:35;;;;;;;5.85;2.80;;;20.80;58.60;;;;;;4990661;28;94938;-60
2022/05/17 00:13:00;;;;;;;5.97;2.47;;;20.80;58.60;;;;;;4992393;28;93016;-60
2022/05/17 00:15:26;;;;;;;6.40;2.50;;;20.80;58.60;;;;;;4991876;28;94001;-59
2022/05/17 00:17:54;;;;;;;7.32;2.70;;;20.80;58.60;;;;;;4992127;28;92809;-61
2022/05/17 00:20:20;;;;;;;4.80;2.60;;;20.80;58.60;;;;;;4992146;28;92594;-60
2022/05/17 00:22:46;;;;;;;4.53;2.40;;;20.80;58.50;;;;;;4991575;28;92606;-60
2022/05/17 00:25:14;;;;;;;5.82;2.70;;;20.80;58.60;;;;;;4990818;28;94010;-60
2022/05/17 00:27:40;;;;;;;5.43;2.55;;;20.80;58.50;;;;;;4991373;28;92913;-60
2022/05/17 00:30:07;;;;;;;5.75;2.45;;;20.80;58.50;;;;;;4992059;28;92514;-60
2022/05/17 00:32:33;;;;;;;6.10;2.80;;;20.80;58.50;;;;;;4992038;28;92572;-60
2022/05/17 00:34:59;;;;;;;5.35;2.40;;;20.80;58.50;;;;;;4990827;28;96042;-59
2022/05/17 00:37:25;;;;;;;5.50;2.50;;;20.80;59.50;;;;;;4991609;28;95504;-60
2022/05/17 00:39:50;;;;;;;6.72;2.60;;;20.80;58.50;;;;;;4972234;28;93284;-60
2022/05/17 00:42:17;;;;;;;5.13;2.40;;;20.80;58.50;;;;;;4991490;28;92512;-60
2022/05/17 00:44:43;;;;;;;5.85;2.58;;;20.80;58.40;;;;;;4991659;28;93033;-60
2022/05/17 00:47:28;;;;;;;8.30;3.00;;;20.80;58.50;;;;;;4991836;28;93102;-59
2022/05/17 00:49:58;;;;;;;4.70;2.80;;;20.80;58.30;;;;;;4991072;28;92898;-60
2022/05/17 00:52:30;;;;;;;6.88;2.63;;;20.80;58.50;;;;;;4991557;28;92066;-60
2022/05/17 00:55:03;;;;;;;5.78;2.78;;;20.80;58.40;;;;;;4973815;28;93462;-59
2022/05/17 00:57:44;;;;;;;5.78;2.75;;;20.80;58.40;;;;;;4956680;28;93196;-60
2022/05/17 01:00:12;;;;;;;5.97;2.70;;;20.80;58.40;;;;;;4953003;28;94935;-60
2022/05/17 01:02:50;;;;;;;6.28;2.88;;;20.70;58.40;;;;;;4969987;28;92882;-61
2022/05/17 01:05:17;;;;;;;3.88;2.25;;;20.70;58.40;;;;;;4991451;28;93107;-60
2022/05/17 01:07:47;;;;;;;7.30;2.70;;;20.70;58.40;;;;;;4991272;28;92768;-60
2022/05/17 01:10:14;;;;;;;5.00;2.60;;;20.80;58.40;;;;;;4991922;28;92767;-60
2022/05/17 01:12:40;;;;;;;7.10;2.60;;;20.70;58.40;;;;;;4991107;28;92595;-60
2022/05/17 01:15:11;;;;;;;6.95;2.55;;;20.70;58.30;;;;;;4990763;28;94846;-60
2022/05/17 01:17:39;;;;;;;6.82;2.72;;;20.70;58.40;;;;;;4991945;28;92502;-61
2022/05/17 01:20:12;;;;;;;6.38;2.40;;;20.70;58.40;;;;;;4973903;28;92597;-60
2022/05/17 01:22:37;;;;;;;6.25;2.80;;;20.70;58.30;;;;;;4991895;28;92809;-60
2022/05/17 01:25:04;;;;;;;4.63;2.38;;;20.70;58.40;;;;;;4990344;28;95984;-60
2022/05/17 01:27:36;;;;;;;4.53;2.30;;;20.70;58.40;;;;;;4991797;28;95205;-60
2022/05/17 01:30:05;;;;;;;6.95;2.55;;;20.70;58.30;;;;;;4992263;28;92779;-60
2022/05/17 01:32:30;;;;;;;4.10;2.30;;;20.70;58.30;;;;;;4990705;28;92619;-60
2022/05/17 01:34:56;;;;;;;4.13;2.10;;;20.70;58.40;;;;;;4989979;28;93613;-60
2022/05/17 01:37:22;;;;;;;4.70;2.30;;;20.70;58.30;;;;;;4972971;28;92693;-61
2022/05/17 01:39:47;;;;;;;4.75;2.47;;;20.70;58.30;;;;;;4955924;28;92600;-60
2022/05/17 01:42:14;;;;;;;5.43;2.65;;;20.70;58.30;;;;;;4990247;28;91799;-60
2022/05/17 01:44:43;;;;;;;4.40;2.30;;;20.70;58.30;;;;;;4971970;28;93382;-60
2022/05/17 01:47:10;;;;;;;4.85;2.40;;;20.70;58.40;;;;;;4972778;28;93827;-60
2022/05/17 01:49:36;;;;;;;5.35;2.60;;;20.70;58.30;;;;;;4989503;28;94848;-60
2022/05/17 01:52:01;;;;;;;5.95;2.67;;;20.70;58.40;;;;;;4990648;28;92547;-61
2022/05/17 01:54:27;;;;;;;6.32;2.80;;;20.70;58.30;;;;;;4989653;28;93282;-60
2022/05/17 01:56:53;;;;;;;6.57;2.83;;;20.70;58.30;;;;;;4970951;28;93570;-60
2022/05/17 01:59:18;;;;;;;5.10;2.35;;;20.70;58.30;;;;;;4990738;28;93452;-60
2022/05/17 02:01:44;;;;;;;6.63;2.35;;;20.70;58.30;;;;;;4989774;28;93033;-61
2022/05/17 02:04:10;;;;;;;6.43;2.45;;;20.70;58.20;;;;;;4990229;28;92954;-60
2022/05/17 02:06:36;;;;;;;5.32;2.55;;;20.70;58.30;;;;;;4971762;28;95413;-60
2022/05/17 02:09:02;;;;;;;4.90;2.40;;;20.70;58.30;;;;;;4971519;28;92575;-60
2022/05/17 02:11:27;;;;;;;3.58;2.10;;;20.70;58.20;;;;;;4990718;28;92567;-60
2022/05/17 02:13:53;;;;;;;4.25;2.13;;;20.70;58.20;;;;;;4988945;28;95298;-60
2022/05/17 02:16:18;;;;;;;3.92;2.60;;;20.70;58.20;;;;;;4990216;28;96044;-61
2022/05/17 02:18:44;;;;;;;4.82;2.60;;;20.70;58.30;;;;;;4989692;28;93018;-60
2022/05/17 02:21:09;;;;;;;5.25;2.60;;;20.70;58.30;;;;;;4989943;28;92908;-60
2022/05/17 02:23:35;;;;;;;5.82;2.35;;;20.70;58.30;;;;;;4971676;28;94990;-59
2022/05/17 02:26:00;;;;;;;5.55;2.67;;;20.70;58.30;;;;;;4989562;28;93325;-59
2022/05/17 02:28:26;;;;;;;4.25;2.53;;;20.60;58.10;;;;;;4990121;28;92549;-60
2022/05/17 02:30:52;;;;;;;6.97;2.50;;;20.70;58.20;;;;;;4971781;28;91827;-59
2022/05/17 02:33:17;;;;;;;4.05;2.30;;;20.70;58.30;;;;;;4989276;28;93753;-59
2022/05/17 02:35:43;;;;;;;4.10;2.35;;;20.60;58.20;;;;;;4989287;28;92738;-59
2022/05/17 02:38:09;;;;;;;5.85;2.50;;;20.70;58.20;;;;;;4988822;28;94918;-59
2022/05/17 02:40:36;;;;;;;4.35;2.50;;;20.60;58.20;;;;;;4989775;28;92584;-59
2022/05/17 02:43:03;;;;;;;4.70;2.60;;;20.60;58.10;;;;;;4989514;28;93634;-59
2022/05/17 02:45:29;;;;;;;4.65;2.20;;;20.60;58.20;;;;;;4970924;28;92776;-59
2022/05/17 02:47:54;;;;;;;4.60;2.40;;;20.60;58.20;;;;;;4970975;28;92481;-60
2022/05/17 02:50:20;;;;;;;3.90;2.40;;;20.60;58.10;;;;;;4989613;28;92542;-60
2022/05/17 02:52:46;;;;;;;5.18;2.75;;;20.60;58.10;;;;;;4971604;28;93366;-60
2022/05/17 02:55:12;;;;;;;5.20;2.53;;;20.60;58.20;;;;;;4990203;28;92659;-59
2022/05/17 02:57:38;;;;;;;4.43;2.20;;;20.60;58.20;;;;;;4989338;28;92596;-60
2022/05/17 03:00:07;;;;;;;5.20;2.40;;;20.60;58.10;;;;;;4989567;28;92559;-60
2022/05/17 03:02:32;;;;;;;4.03;2.47;;;20.60;58.10;;;;;;4987846;28;95507;-59
2022/05/17 03:04:58;;;;;;;4.97;2.40;;;20.60;58.20;;;;;;4989037;28;94927;-60
2022/05/17 03:07:24;;;;;;;5.22;2.60;;;20.60;58.10;;;;;;4989465;28;92725;-60
2022/05/17 03:09:49;;;;;;;3.72;2.33;;;20.60;58.10;;;;;;4990088;28;92530;-60
2022/05/17 03:12:15;;;;;;;4.85;2.30;;;20.60;58.20;;;;;;4989650;28;93098;-60
2022/05/17 03:14:40;;;;;;;5.25;2.75;;;20.60;58.10;;;;;;4992093;28;93048;-60
2022/05/17 03:17:14;;;;;;;3.80;2.35;;;20.60;58.10;;;;;;4992417;28;93087;-60
2022/05/17 03:19:40;;;;;;;5.30;2.60;;;20.60;58.20;;;;;;4993336;28;91844;-60
2022/05/17 03:22:06;;;;;;;4.57;2.50;;;20.60;58.20;;;;;;4974657;28;95072;-60
2022/05/17 03:24:32;;;;;;;4.95;2.60;;;20.60;58.20;;;;;;4974136;28;92544;-60
2022/05/17 03:26:58;;;;;;;4.20;2.22;;;20.60;58.10;;;;;;4990337;28;95483;-59
2022/05/17 03:29:24;;;;;;;4.80;2.20;;;20.60;58.10;;;;;;4990951;28;93011;-60
2022/05/17 03:31:50;;;;;;;3.63;2.35;;;20.60;58.20;;;;;;4991638;28;93262;-60
2022/05/17 03:34:16;;;;;;;4.10;2.60;;;20.60;58.20;;;;;;4974085;28;95115;-60
2022/05/17 03:36:42;;;;;;;3.63;2.28;;;20.60;58.20;;;;;;4992593;28;92492;-60
2022/05/17 03:39:08;;;;;;;5.95;2.58;;;20.60;58.10;;;;;;4992528;28;92869;-60
2022/05/17 03:41:34;;;;;;;5.57;2.75;;;20.60;58.20;;;;;;4992646;28;92666;-60
2022/05/17 03:44:00;;;;;;;4.32;2.47;;;20.60;58.10;;;;;;4992920;28;92693;-60
2022/05/17 03:46:25;;;;;;;5.38;2.72;;;20.60;58.20;;;;;;4992986;28;92882;-60
2022/05/17 03:48:51;;;;;;;4.32;2.25;;;20.60;58.20;;;;;;4992734;28;93121;-62
2022/05/17 03:51:19;;;;;;;7.20;2.47;;;20.50;58.20;;;;;;4972530;28;99997;-60
2022/05/17 03:53:47;;;;;;;4.25;2.50;;;20.50;58.10;;;;;;4992708;28;95013;-60
2022/05/17 03:56:13;;;;;;;5.00;2.45;;;20.50;58.10;;;;;;4993243;28;93160;-60
2022/05/17 03:58:40;;;;;;;4.90;2.53;;;20.50;58.10;;;;;;4992644;28;92532;-61
2022/05/17 04:01:06;;;;;;;5.22;2.40;;;20.50;58.10;;;;;;4992553;28;93153;-60
2022/05/17 04:03:33;;;;;;;4.85;2.63;;;20.50;58.10;;;;;;4991785;28;92526;-60
2022/05/17 04:05:59;;;;;;;3.50;2.25;;;20.50;58.10;;;;;;4958243;28;92734;-60
2022/05/17 04:08:24;;;;;;;3.88;2.35;;;20.50;58.10;;;;;;4992083;28;91926;-60
2022/05/17 04:10:50;;;;;;;4.38;2.33;;;20.50;58.10;;;;;;4992160;28;93049;-60
2022/05/17 04:13:16;;;;;;;3.83;2.28;;;20.50;58.10;;;;;;4991393;28;93393;-59
2022/05/17 04:15:42;;;;;;;4.07;2.30;;;20.50;58.10;;;;;;4990980;28;95431;-60
2022/05/17 04:18:08;;;;;;;4.22;2.33;;;20.50;58.20;;;;;;4992521;28;92697;-60
2022/05/17 04:20:34;;;;;;;5.60;2.40;;;20.50;58.10;;;;;;4991967;28;93573;-60
2022/05/17 04:23:00;;;;;;;5.18;2.40;;;20.50;58.10;;;;;;4991729;28;92758;-61
2022/05/17 04:25:27;;;;;;;5.72;2.35;;;20.50;58.10;;;;;;4991660;28;92975;-60
2022/05/17 04:27:53;;;;;;;4.00;2.05;;;20.50;58.10;;;;;;4957770;28;92938;-60
2022/05/17 04:30:19;;;;;;;4.97;2.38;;;20.50;58.10;;;;;;4991891;28;93126;-60
2022/05/17 04:32:47;;;;;;;4.90;2.40;;;20.50;58.10;;;;;;4991056;28;95580;-60
2022/05/17 04:35:14;;;;;;;3.42;2.20;;;20.50;58.10;;;;;;4992147;28;92971;-60
2022/05/17 04:37:40;;;;;;;5.40;2.30;;;20.50;58.10;;;;;;4991598;28;92785;-61
2022/05/17 04:40:08;;;;;;;3.35;2.20;;;20.50;58.10;;;;;;4989962;28;95849;-60
2022/05/17 04:42:43;;;;;;;4.18;2.15;;;20.50;58.10;;;;;;4973733;28;95034;-60
2022/05/17 04:45:13;;;;;;;5.07;2.33;;;20.50;58.10;;;;;;4991885;28;92732;-60
2022/05/17 04:47:40;;;;;;;4.20;2.08;;;20.50;58.10;;;;;;4992181;28;92493;-60
2022/05/17 04:50:06;;;;;;;4.82;2.17;;;20.50;58.10;;;;;;4991788;28;93321;-60
2022/05/17 04:52:31;;;;;;;3.22;2.15;;;20.50;58.10;;;;;;4972630;28;92974;-60
2022/05/17 04:54:57;;;;;;;4.88;2.15;;;20.50;58.10;;;;;;4992109;28;92533;-60
2022/05/17 04:57:22;;;;;;;3.50;2.30;;;20.50;58.20;;;;;;4991857;28;91812;-60
2022/05/17 04:59:48;;;;;;;4.13;2.30;;;20.50;58.10;;;;;;4991805;28;93043;-60
2022/05/17 05:02:13;;;;;;;3.40;2.03;;;20.50;58.10;;;;;;4973579;28;93516;-61
2022/05/17 05:04:39;;;;;;;3.97;2.33;;;20.50;58.10;;;;;;4972116;28;95505;-60
2022/05/17 05:07:06;;;;;;;3.15;2.10;;;20.50;58.10;;;;;;4991205;28;92851;-60
2022/05/17 05:09:32;;;;;;;3.45;2.00;;;20.50;58.10;;;;;;4991250;28;95762;-60
2022/05/17 05:11:58;;;;;;;4.50;2.30;;;20.50;58.10;;;;;;4990937;28;93841;-61
2022/05/17 05:14:23;;;;;;;5.22;2.30;;;20.50;58.10;;;;;;4991657;28;93258;-60
2022/05/17 05:16:49;;;;;;;4.78;2.20;;;20.50;58.10;;;;;;4991260;28;93050;-60
2022/05/17 05:19:15;;;;;;;4.10;2.17;;;20.50;58.10;;;;;;4990675;28;93737;-61
2022/05/17 05:21:40;;;;;;;4.72;2.20;;;20.50;58.10;;;;;;4991457;28;92745;-61
2022/05/17 05:24:07;;;;;;;3.80;2.20;;;20.50;58.10;;;;;;4991651;28;92984;-61
2022/05/17 05:26:34;;;;;;;3.38;2.30;;;20.50;58.20;;;;;;4991046;28;92792;-59
2022/05/17 05:28:59;;;;;;;4.28;2.15;;;20.50;58.30;;;;;;4989554;28;95608;-59
2022/05/17 05:31:25;;;;;;;5.10;2.70;;;20.50;58.20;;;;;;4990654;28;95004;-59
2022/05/17 05:33:51;;;;;;;7.43;2.75;;;20.60;58.30;;;;;;4991233;28;92589;-60
2022/05/17 05:36:16;;;;;;;6.13;2.25;;;20.60;58.40;;;;;;4990009;28;92942;-60
2022/05/17 05:38:42;;;;;;;5.97;2.22;;;20.60;58.50;;;;;;4990376;28;92499;-60
2022/05/17 05:41:14;;;;;;;6.50;2.40;;;20.60;58.60;;;;;;4990686;28;93101;-60
2022/05/17 05:43:40;;;;;;;7.00;2.57;;;20.60;58.70;;;;;;4991065;28;92631;-60
2022/05/17 05:46:06;;;;;;;8.63;2.83;;;20.60;58.80;;;;;;4973394;28;92360;-60
2022/05/17 05:48:32;;;;;;;30.05;3.30;;;20.60;59.10;;;;;;4990126;28;92900;-60
2022/05/17 05:50:57;;;;;;;35.05;3.80;;;20.70;59.40;;;;;;4972128;28;92978;-59
2022/05/17 05:53:23;;;;;;;51.67;4.70;;;20.70;59.40;;;;;;4989588;28;95241;-61
2022/05/17 05:55:57;;;;;;;37.25;4.00;;;20.70;59.40;;;;;;4989890;28;93103;-61
2022/05/17 05:58:24;;;;;;;23.70;4.18;;;20.70;59.40;;;;;;4990407;28;93350;-61
2022/05/17 06:00:50;;;;;;;31.08;3.63;;;20.70;59.40;;;;;;4972141;28;94501;-61
2022/05/17 06:03:15;;;;;;;28.10;3.60;;;20.70;59.30;;;;;;4990298;28;92525;-61
2022/05/17 06:05:41;;;;;;;24.40;4.30;;;20.70;59.40;;;;;;4989437;28;92612;-61
2022/05/17 06:08:12;;;;;;;19.05;3.20;;;20.70;59.30;;;;;;4989829;28;93952;-61
2022/05/17 06:10:37;;;;;;;24.60;3.50;;;20.70;59.30;;;;;;4991024;28;92701;-61
2022/05/17 06:13:03;;;;;;;17.70;3.30;;;20.70;59.30;;;;;;4971591;28;93260;-61
2022/05/17 06:15:28;;;;;;;13.00;2.95;;;20.70;59.40;;;;;;4956351;28;93299;-62
2022/05/17 06:17:54;;;;;;;20.20;3.10;;;20.70;59.40;;;;;;4988737;28;99818;-62
2022/05/17 06:20:20;;;;;;;15.63;2.80;;;20.60;59.60;;;;;;4989868;28;95154;-62
2022/05/17 06:22:45;;;;;;;14.75;2.95;;;20.70;59.80;;;;;;4990521;28;92502;-61
2022/05/17 06:25:11;;;;;;;19.95;3.30;;;20.70;60.00;;;;;;4972067;28;92532;-61
2022/05/17 06:27:37;;;;;;;19.92;4.10;;;20.70;60.40;;;;;;4955690;28;95179;-62
2022/05/17 06:30:04;;;;;;;16.67;3.20;;;20.80;60.50;;;;;;4971547;28;94625;-61
2022/05/17 06:32:29;;;;;;;17.67;3.20;;;20.90;60.40;;;;;;4990176;28;92456;-61
2022/05/17 06:34:55;;;;;;;13.07;3.35;;;20.90;60.20;;;;;;4990573;28;91803;-61
2022/05/17 06:37:21;;;;;;;18.52;4.10;;;21.00;60.20;;;;;;4977364;28;95662;-60
2022/05/17 06:39:46;;;;;;;11.80;3.42;;;20.90;60.10;;;;;;4992526;28;92492;-61
2022/05/17 06:42:12;;;;;;;13.57;3.30;;;20.90;60.10;;;;;;4969566;28;95253;-62
2022/05/17 06:44:38;;;;;;;15.98;3.78;;;20.90;60.30;;;;;;4990905;28;92838;-61
2022/05/17 06:47:05;;;;;;;13.88;3.90;;;20.90;61.10;;;;;;4972258;28;94071;-61
2022/05/17 06:49:31;;;;;;;12.57;3.58;;;20.90;62.00;;;;;;4995043;28;92782;-62
2022/05/17 06:52:00;;;;;;;21.98;3.58;;;20.90;63.00;;;;;;4996660;28;92817;-62
2022/05/17 06:54:26;;;;;;;14.13;3.47;;;20.90;63.30;;;;;;4996319;28;93042;-62
2022/05/17 06:56:52;;;;;;;17.52;3.53;;;20.90;63.10;;;;;;4996500;28;92892;-62
2022/05/17 06:59:18;;;;;;;17.80;4.10;;;20.90;63.10;;;;;;4996134;28;92979;-62
2022/05/17 07:01:44;;;;;;;14.30;3.35;;;20.90;62.90;;;;;;4995834;28;92532;-61
2022/05/17 07:04:10;;;;;;;13.50;3.55;;;20.90;62.70;;;;;;4996056;28;93011;-62
2022/05/17 07:06:35;;;;;;;12.63;3.03;;;20.90;62.70;;;;;;4994849;28;95544;-62
2022/05/17 07:09:01;;;;;;;14.43;3.00;;;20.80;62.60;;;;;;4995927;28;95190;-62
2022/05/17 07:14:10;;;;;;;18.05;3.70;;;20.80;62.50;;;;;;4980530;28;92976;-62
2022/05/17 07:16:36;;;;;;;11.40;3.50;;;20.80;62.50;;;;;;4977990;28;94383;-62
2022/05/17 07:19:01;;;;;;;10.70;2.80;;;20.80;62.50;;;;;;4996055;28;92887;-62
2022/05/17 07:21:27;;;;;;;12.05;3.17;;;20.80;62.60;;;;;;4996314;28;92729;-62
2022/05/17 07:23:52;;;;;;;9.40;2.95;;;20.80;62.50;;;;;;4996634;28;91766;-61
2022/05/17 07:26:18;;;;;;;11.82;3.42;;;20.80;62.50;;;;;;4995636;28;94937;-61
2022/05/17 07:28:47;;;;;;;9.75;3.08;;;20.80;62.50;;;;;;4996459;28;96348;-61
2022/05/17 07:31:13;;;;;;;11.73;2.80;;;20.80;62.40;;;;;;4995105;28;94836;-61
2022/05/17 07:33:40;;;;;;;10.65;2.50;;;20.80;62.40;;;;;;4996390;28;92490;-61
2022/05/17 07:36:07;;;;;;;11.10;3.40;;;20.80;62.40;;;;;;4995710;28;92984;-60
2022/05/17 07:38:34;;;;;;;11.95;3.30;;;20.80;62.40;;;;;;4996234;28;93046;-60
2022/05/17 07:41:00;;;;;;;14.77;3.83;;;20.80;62.30;;;;;;4996016;28;92497;-60
2022/05/17 07:43:25;;;;;;;17.95;4.28;;;20.70;62.70;;;;;;4977445;28;93770;-61
2022/05/17 07:45:51;;;;;;;13.85;4.00;;;20.70;63.50;;;;;;4977358;28;94223;-61
2022/05/17 07:48:18;;;;;;;13.63;3.50;;;20.60;63.90;;;;;;4995961;28;93292;-62
2022/05/17 07:50:44;;;;;;;15.48;3.50;;;20.60;63.80;;;;;;4978184;28;92482;-62
2022/05/17 07:53:12;;;;;;;16.55;3.95;;;20.60;63.90;;;;;;4996112;28;92953;-62
2022/05/17 07:55:39;;;;;;;17.48;4.03;;;20.60;64.10;;;;;;4994373;28;96159;-62
2022/05/17 07:58:05;;;;;;;16.50;3.58;;;20.60;64.00;;;;;;4977537;28;95193;-62
2022/05/17 08:00:32;;;;;;;11.57;3.10;;;20.60;64.10;;;;;;4992339;28;92649;-62
2022/05/17 08:02:59;;;;;;;16.25;3.55;;;20.60;64.00;;;;;;4991715;28;93028;-62
2022/05/17 08:05:26;;;;;;;12.73;3.80;;;20.60;63.90;;;;;;4992304;28;93189;-62
2022/05/17 08:07:52;;;;;;;13.93;3.00;;;20.70;64.00;;;;;;4991667;28;92925;-62
2022/05/17 08:10:17;;;;;;;10.75;3.20;;;20.70;63.90;;;;;;4973641;28;92931;-62
2022/05/17 08:12:43;;;;;;;11.05;3.42;;;20.70;63.80;;;;;;4992379;28;92137;-62
2022/05/17 08:15:10;;;;;;;13.93;3.30;;;20.70;63.60;;;;;;4973854;28;95017;-61
2022/05/17 08:17:35;;;;;;;8.63;2.80;;;20.70;63.50;;;;;;4992592;28;93027;-61
2022/05/17 08:20:02;;;;;;;12.63;3.60;;;20.70;63.50;;;;;;4990891;28;94964;-61
2022/05/17 08:22:28;;;;;;;9.32;3.40;;;20.80;63.60;;;;;;4975150;28;92948;-61
2022/05/17 08:27:37;;;;;;;8.98;3.20;;;20.80;63.60;;;;;;4991820;28;93114;-61
2022/05/17 08:30:07;;;;;;;9.32;2.88;;;20.80;63.60;;;;;;4991963;28;92537;-61
2022/05/17 08:35:17;;;;;;;9.30;2.97;;;20.80;63.30;;;;;;4975712;28;92769;-62
2022/05/17 08:37:43;;;;;;;9.27;2.85;;;20.80;63.40;;;;;;4992383;28;92827;-61
2022/05/17 08:40:19;;;;;;;9.60;2.88;;;20.80;63.20;;;;;;4991686;28;92869;-61
2022/05/17 08:43:18;;;;;;;8.18;2.60;;;20.80;63.00;;;;;;4991505;28;92599;-61
2022/05/17 08:46:01;;;;;;;8.85;2.75;;;20.80;62.90;;;;;;4978739;28;95647;-62
2022/05/17 08:48:33;;;;;;;10.27;2.88;;;20.80;63.20;;;;;;4991824;28;95024;-62
2022/05/17 08:51:00;;;;;;;9.25;2.47;;;20.80;63.00;;;;;;4991205;28;92561;-62
2022/05/17 08:53:26;;;;;;;12.48;2.88;;;20.80;62.90;;;;;;4990333;28;92656;-61
2022/05/17 08:55:52;;;;;;;8.07;2.67;;;20.80;62.90;;;;;;4973255;28;93291;-61
2022/05/17 08:58:28;;;;;;;9.32;3.13;;;20.80;62.80;;;;;;4990598;28;93207;-61
2022/05/17 09:01:06;;;;;;;8.40;3.00;;;20.80;62.80;;;;;;4990361;28;92861;-62
2022/05/17 09:03:48;;;;;;;8.73;2.67;;;20.80;62.80;;;;;;4991480;28;91769;-61
2022/05/17 09:06:37;;;;;;;6.80;2.43;;;20.80;62.80;;;;;;4991335;28;93320;-62
2022/05/17 09:09:21;;;;;;;7.07;2.67;;;20.80;62.90;;;;;;4971747;28;92919;-62
2022/05/17 09:11:50;;;;;;;8.25;2.80;;;20.80;62.80;;;;;;4969834;28;95348;-61
2022/05/17 09:14:26;;;;;;;8.90;2.40;;;20.80;62.90;;;;;;4953111;28;93033;-62
2022/05/17 09:16:59;;;;;;;9.05;2.75;;;20.80;62.90;;;;;;4952180;28;95198;-62
2022/05/17 09:19:26;;;;;;;8.60;2.65;;;20.80;62.60;;;;;;4952690;28;95426;-62
2022/05/17 09:21:53;;;;;;;6.95;2.50;;;20.80;62.60;;;;;;4953152;28;92857;-61
2022/05/17 09:24:20;;;;;;;5.18;2.03;;;20.80;62.60;;;;;;4970956;28;92449;-62
2022/05/17 09:26:52;;;;;;;5.57;2.38;;;20.80;62.60;;;;;;4970738;28;93706;-62
2022/05/17 09:29:20;;;;;;;6.67;2.50;;;20.80;62.40;;;;;;4971784;28;92786;-62
2022/05/17 09:31:55;;;;;;;6.18;2.08;;;20.80;62.50;;;;;;4970794;28;92910;-62
2022/05/17 09:34:28;;;;;;;7.18;2.63;;;20.80;62.40;;;;;;4953041;28;92502;-62
2022/05/17 09:36:56;;;;;;;5.25;2.20;;;20.80;62.50;;;;;;4969564;28;96025;-62
2022/05/17 09:39:23;;;;;;;5.65;2.20;;;20.70;62.40;;;;;;4952787;28;94066;-62
2022/05/17 09:41:51;;;;;;;6.32;2.28;;;20.80;62.40;;;;;;4951945;28;92995;-62
2022/05/17 09:44:23;;;;;;;5.00;2.22;;;20.70;62.30;;;;;;4971096;28;92502;-62
2022/05/17 09:46:51;;;;;;;6.40;1.80;;;20.80;62.30;;;;;;4970989;28;93000;-62
2022/05/17 09:52:32;;;;;;;6.15;2.25;;;20.80;62.40;;;;;;4971703;28;92886;-62
2022/05/17 09:55:21;;;;;;;5.43;2.00;;;20.70;62.30;;;;;;4970986;28;91880;-62
2022/05/17 09:58:00;;;;;;;5.45;1.95;;;20.70;62.30;;;;;;4952975;28;93034;-62
2022/05/17 10:00:28;;;;;;;4.40;2.10;;;20.70;62.20;;;;;;4952550;28;95366;-62
2022/05/17 10:03:03;;;;;;;4.35;1.92;;;20.70;62.30;;;;;;4969673;28;95582;-62
2022/05/17 10:05:38;;;;;;;6.35;2.30;;;20.70;62.30;;;;;;4937377;28;93248;-62
2022/05/17 10:08:42;;;;;;;5.00;2.10;;;20.70;62.20;;;;;;4966922;28;94157;-62
2022/05/17 10:11:23;;;;;;;4.85;2.40;;;20.70;62.20;;;;;;4966922;28;92682;-62
2022/05/17 10:14:07;;;;;;;3.63;1.90;;;20.70;62.20;;;;;;4972206;28;92642;-62
2022/05/17 10:16:53;;;;;;;5.57;2.50;;;20.70;62.20;;;;;;4972076;28;92584;-62
2022/05/17 10:19:39;;;;;;;4.90;2.22;;;20.70;62.20;;;;;;4989959;28;93002;-62
2022/05/17 10:22:35;;;;;;;5.28;2.20;;;20.70;62.20;;;;;;4990289;28;92599;-62
2022/05/17 10:25:08;;;;;;;6.40;2.30;;;20.70;62.10;;;;;;4989836;28;92572;-62
2022/05/17 10:27:49;;;;;;;4.55;2.03;;;20.60;62.20;;;;;;4955996;28;92584;-62
2022/05/17 10:30:19;;;;;;;5.35;2.30;;;20.70;62.30;;;;;;4981928;28;95589;-61
2022/05/17 10:33:15;;;;;;;7.40;2.10;;;20.60;62.20;;;;;;4989686;28;95573;-62
2022/05/17 10:35:49;;;;;;;6.60;2.00;;;20.60;62.30;;;;;;4984768;28;92617;-62
2022/05/17 10:38:22;;;;;;;6.65;2.05;;;20.60;62.20;;;;;;4989515;28;92998;-62
2022/05/17 10:40:51;;;;;;;4.82;1.80;;;20.60;62.20;;;;;;4989317;28;93224;-62
2022/05/17 10:43:27;;;;;;;4.70;2.30;;;20.60;62.20;;;;;;4989524;28;92761;-62
2022/05/17 10:46:09;;;;;;;6.30;2.10;;;20.60;62.20;;;;;;4989459;28;92825;-62
2022/05/17 10:48:54;;;;;;;3.95;1.90;;;20.60;62.10;;;;;;4990317;28;92069;-62
2022/05/17 10:51:37;;;;;;;5.13;1.90;;;20.60;62.20;;;;;;4989727;28;92888;-63
2022/05/17 10:54:27;;;;;;;4.35;1.65;;;20.60;62.20;;;;;;4989284;28;92664;-62
2022/05/17 10:57:05;;;;;;;4.93;2.00;;;20.60;62.30;;;;;;4989042;28;95466;-62
2022/05/17 10:59:55;;;;;;;5.30;1.95;;;20.60;62.20;;;;;;4989870;28;92979;-63
2022/05/17 11:02:32;;;;;;;6.65;2.10;;;20.60;62.20;;;;;;4984230;28;93104;-62
2022/05/17 11:05:07;;;;;;;3.70;1.73;;;20.60;62.20;;;;;;4989775;28;92635;-62
2022/05/17 11:07:36;;;;;;;3.17;1.50;;;20.60;62.30;;;;;;4989833;28;93229;-62
2022/05/17 11:10:34;;;;;;;6.10;2.10;;;20.60;62.20;;;;;;4989487;28;92799;-62
2022/05/17 11:13:23;;;;;;;4.22;1.90;;;20.60;62.20;;;;;;4989753;28;93139;-62
2022/05/17 11:16:08;;;;;;;5.10;1.95;;;20.60;62.30;;;;;;4990182;28;92719;-62
2022/05/17 11:18:53;;;;;;;5.25;2.13;;;20.60;62.20;;;;;;4989926;28;92549;-62
2022/05/17 11:21:41;;;;;;;5.72;2.05;;;20.60;62.20;;;;;;4989703;28;93540;-62
2022/05/17 11:24:14;;;;;;;4.60;2.08;;;20.60;62.20;;;;;;4987395;28;95618;-62
2022/05/17 11:26:57;;;;;;;4.80;2.10;;;20.60;62.30;;;;;;4989088;28;95119;-62
2022/05/17 11:29:51;;;;;;;5.88;1.90;;;20.60;62.30;;;;;;4971397;28;92592;-62
2022/05/17 11:32:26;;;;;;;4.95;1.80;;;20.60;62.30;;;;;;4989088;28;92955;-62
2022/05/17 11:34:53;;;;;;;6.10;1.80;;;20.70;62.40;;;;;;4971480;28;93632;-62
2022/05/17 11:37:46;;;;;;;5.07;2.10;;;20.70;62.30;;;;;;4992919;28;93213;-62
2022/05/17 11:40:32;;;;;;;;;;;20.70;62.20;;;;;;4992769;28;92544;-62
2022/05/17 11:45:54;;;;;;;3.67;2.00;;;20.70;62.30;;;;;;4993071;28;92913;-62
2022/05/17 11:48:23;;;;;;;4.15;1.70;;;20.80;62.40;;;;;;4993417;28;92649;-62
2022/05/17 11:50:51;;;;;;;5.45;1.80;;;20.80;62.40;;;;;;4992739;28;94907;-62
2022/05/17 11:53:47;;;;;;;4.57;2.00;;;20.80;62.30;;;;;;4992731;28;92529;-62
2022/05/17 11:56:20;;;;;;;4.65;1.67;;;20.90;62.20;;;;;;4985209;28;92924;-62
2022/05/17 11:58:49;;;;;;;3.58;1.73;;;20.90;62.30;;;;;;4992492;28;93093;-62
2022/05/17 12:01:29;;;;;;;2.47;1.52;;;20.90;62.20;;;;;;4992484;28;93169;-62
2022/05/17 12:03:57;;;;;;;4.32;1.67;;;20.90;62.20;;;;;;4991893;28;93100;-62
2022/05/17 12:06:38;;;;;;;4.50;1.85;;;21.00;62.20;;;;;;4991871;28;93032;-62
2022/05/17 12:09:26;;;;;;;4.40;1.80;;;21.00;62.10;;;;;;4974925;28;93623;-62
2022/05/17 12:12:14;;;;;;;4.40;2.03;;;21.00;62.10;;;;;;4982742;28;93030;-62
2022/05/17 12:15:08;;;;;;;4.78;2.05;;;21.00;62.10;;;;;;4973925;28;93390;-62
2022/05/17 12:17:45;;;;;;;4.75;1.75;;;21.00;62.00;;;;;;4972962;28;96324;-63
2022/05/17 12:20:22;;;;;;;4.55;1.70;;;21.00;62.10;;;;;;4991415;28;95958;-62
2022/05/17 12:23:05;;;;;;;3.40;1.63;;;21.10;62.00;;;;;;4992601;28;92767;-62
2022/05/17 12:25:40;;;;;;;;;;;21.10;61.90;;;;;;4992408;28;92421;-62
2022/05/17 12:28:10;;;;;;;3.45;1.70;;;21.00;62.00;;;;;;4993565;28;93113;-62
2022/05/17 12:30:53;;;;;;;3.50;1.70;;;21.10;62.20;;;;;;4973709;28;94810;-62
2022/05/17 12:33:32;;;;;;;3.30;1.63;;;21.10;62.00;;;;;;4991603;28;92931;-62
2022/05/17 12:36:18;;;;;;;4.30;1.70;;;21.10;62.00;;;;;;4992102;28;92786;-62
2022/05/17 12:44:53;;;;;;;2.92;1.30;;;21.10;62.00;;;;;;4989327;28;95182;-62
2022/05/17 12:47:50;;;;;;;4.40;1.67;;;21.10;61.90;;;;;;4990956;28;92917;-62
2022/05/17 12:50:40;;;;;;;2.30;1.40;;;21.20;62.00;;;;;;4991047;28;92990;-62
2022/05/17 12:53:16;;;;;;;2.38;1.38;;;21.20;61.90;;;;;;4991101;28;93232;-62
2022/05/17 12:56:03;;;;;;;3.25;1.48;;;21.10;61.90;;;;;;4990982;28;93038;-62
2022/05/17 12:58:29;;;;;;;3.35;1.70;;;21.20;61.90;;;;;;4991811;28;92483;-62
2022/05/17 13:00:58;;;;;;;2.63;1.50;;;21.20;61.90;;;;;;4991453;28;92888;-62
2022/05/17 13:03:27;;;;;;;3.47;1.60;;;21.20;61.90;;;;;;4992177;28;93032;-62
2022/05/17 13:05:54;;;;;;;2.78;1.40;;;21.20;62.00;;;;;;4991033;28;92919;-62
2022/05/17 13:08:26;;;;;;;2.10;1.30;;;21.20;61.80;;;;;;4973411;28;92605;-62
2022/05/17 13:11:19;;;;;;;2.42;1.42;;;21.20;61.90;;;;;;4989270;28;95387;-62
2022/05/17 13:13:46;;;;;;;3.70;1.70;;;21.20;61.80;;;;;;4983547;28;95093;-62
2022/05/17 13:16:25;;;;;;;2.88;1.33;;;21.20;61.90;;;;;;4990915;28;93134;-62
2022/05/17 13:18:56;;;;;;;2.55;1.40;;;21.20;61.90;;;;;;4990145;28;93825;-62
2022/05/17 13:21:43;;;;;;;3.60;1.60;;;21.20;61.90;;;;;;4972870;28;93194;-62